Whittier, Alaska
Current Conditions -  °F | °C
As of 3:53 AM on Friday 24 Oct 2014 (Local Time) from PATO Reporting Station
Broken Clouds Broken Clouds  
Wind Chill: 21°   Ceiling: 6000
Heat Index: 21°   Visibility: 10mi
Dew Point: 21°   Wind: 3mph
Humidity: 100%   Direction: 250°WSW
Pressure: 29.78"   Gusts: NA
Location:  60.77°N, 148.69°W
Report Text: PATO 241153Z AUTO 25003KT 10SM SCT041 BKN060 M06/M06 A2978 RMK AO2 SLP086 I6000 T10611061 11039 21067 53003 TSNO
Loading
Personal Weather Stations






























Interactive Weather Map
Tropical Storm Tracking
New forecast layout! Learn more

10-Day Weather Forecast

Advertisements
Track Severe Weather on mobile